Time;durP1;ratioP1;P1;durP2;ratioP2;P2;SDS_P1;SDS_P2;PMS_P1;PMS_P2;Temp;Humidity;BMP_temperature;BMP_pressure;BME280_temperature;BME280_humidity;BME280_pressure;Samples;Min_cycle;Max_cycle;Signal;HPM_P1;HPM_P2
2024/04/22 00:01:03;;;;;;;0.75;0.75;;;3.50;99.90;;;;;;4443354;32;20065;-61
2024/04/22 00:03:29;;;;;;;0.40;0.40;;;3.50;99.90;;;;;;4431612;32;20502;-59
2024/04/22 00:05:55;;;;;;;0.82;0.60;;;3.40;99.90;;;;;;4442095;32;20056;-59
2024/04/22 00:08:21;;;;;;;0.40;0.40;;;3.40;99.90;;;;;;4431489;32;20061;-59
2024/04/22 00:10:46;;;;;;;0.40;0.40;;;3.30;99.90;;;;;;4428782;32;20124;-60
2024/04/22 00:13:12;;;;;;;0.30;0.30;;;3.40;99.90;;;;;;4441027;32;20065;-60
2024/04/22 00:15:37;;;;;;;0.82;0.50;;;3.30;99.90;;;;;;4431084;32;20138;-60
2024/04/22 00:18:03;;;;;;;0.30;0.30;;;3.40;99.90;;;;;;4444303;32;20123;-60
2024/04/22 00:20:29;;;;;;;0.30;0.30;;;3.50;99.90;;;;;;4442223;32;20112;-61
2024/04/22 00:22:54;;;;;;;0.30;0.30;;;3.40;99.90;;;;;;4441523;32;20061;-59
2024/04/22 00:25:20;;;;;;;0.30;0.30;;;3.40;99.90;;;;;;4442199;32;20422;-61
2024/04/22 00:27:45;;;;;;;0.70;0.70;;;3.40;99.90;;;;;;4440583;32;20081;-59
2024/04/22 00:30:11;;;;;;;0.57;0.57;;;3.40;99.90;;;;;;4442300;32;20058;-59
2024/04/22 00:32:37;;;;;;;0.40;0.40;;;3.30;99.90;;;;;;4440827;32;20424;-59
2024/04/22 00:35:02;;;;;;;0.40;0.40;;;3.30;99.90;;;;;;4433071;32;20054;-60
2024/04/22 00:37:28;;;;;;;0.30;0.30;;;3.20;99.90;;;;;;4441564;32;20074;-60
2024/04/22 00:39:53;;;;;;;1.05;1.00;;;3.20;99.90;;;;;;4442387;32;20061;-59
2024/04/22 00:42:19;;;;;;;0.30;0.30;;;3.20;99.90;;;;;;4441899;32;20414;-62
2024/04/22 00:44:45;;;;;;;0.40;0.40;;;3.20;99.90;;;;;;4440980;32;20119;-59
2024/04/22 00:47:10;;;;;;;0.55;0.55;;;3.20;99.90;;;;;;4433312;32;20065;-59
2024/04/22 00:49:36;;;;;;;1.27;0.75;;;3.20;99.90;;;;;;4439427;32;20070;-60
2024/04/22 00:52:02;;;;;;;1.08;0.95;;;3.20;99.90;;;;;;4441791;32;20517;-59
2024/04/22 00:54:29;;;;;;;0.30;0.30;;;3.20;99.90;;;;;;4442762;32;20082;-60
2024/04/22 00:56:55;;;;;;;0.30;0.30;;;3.20;99.90;;;;;;4441281;32;20094;-60
2024/04/22 00:59:21;;;;;;;0.40;0.40;;;3.20;99.90;;;;;;4429949;32;20497;-58
2024/04/22 01:01:48;;;;;;;0.30;0.30;;;3.10;99.90;;;;;;4430827;32;20084;-59
2024/04/22 01:04:13;;;;;;;0.37;0.37;;;3.10;99.90;;;;;;4439113;32;20116;-60
2024/04/22 01:06:39;;;;;;;0.30;0.30;;;3.10;99.90;;;;;;4441774;32;20069;-60
2024/04/22 01:09:04;;;;;;;0.30;0.30;;;3.10;99.90;;;;;;4440219;32;20478;-60
2024/04/22 01:11:30;;;;;;;0.30;0.30;;;2.90;99.90;;;;;;4440018;32;20571;-59
2024/04/22 01:13:57;;;;;;;0.50;0.50;;;2.90;99.90;;;;;;4442451;32;20064;-60
2024/04/22 01:16:22;;;;;;;0.30;0.30;;;2.90;99.90;;;;;;4441703;32;20073;-60
2024/04/22 01:18:48;;;;;;;0.45;0.45;;;3.00;99.90;;;;;;4440039;32;20117;-60
2024/04/22 01:21:13;;;;;;;0.28;0.28;;;3.00;99.90;;;;;;4441976;32;20069;-60
2024/04/22 01:23:41;;;;;;;0.47;0.47;;;3.00;99.90;;;;;;4442153;32;20504;-60
2024/04/22 01:26:08;;;;;;;0.30;0.30;;;2.90;99.90;;;;;;4440120;32;20509;-59
2024/04/22 01:28:33;;;;;;;0.30;0.30;;;2.90;99.90;;;;;;4440156;32;20065;-60
2024/04/22 01:30:59;;;;;;;0.35;0.35;;;2.70;99.90;;;;;;4439324;32;20064;-59
2024/04/22 01:33:25;;;;;;;0.40;0.40;;;2.70;99.90;;;;;;4438342;32;20116;-59
2024/04/22 01:35:50;;;;;;;0.40;0.40;;;2.70;99.90;;;;;;4439623;32;20060;-62
2024/04/22 01:38:16;;;;;;;0.30;0.30;;;2.70;99.90;;;;;;4441330;32;20124;-59
2024/04/22 01:40:41;;;;;;;0.30;0.30;;;2.70;99.90;;;;;;4440099;32;20519;-60
2024/04/22 01:43:07;;;;;;;0.32;0.32;;;2.70;99.90;;;;;;4440816;32;20093;-59
2024/04/22 01:45:32;;;;;;;1.85;1.15;;;2.80;99.90;;;;;;4441889;32;20143;-61
2024/04/22 01:47:58;;;;;;;0.40;0.40;;;2.80;99.90;;;;;;4442912;32;20540;-61
2024/04/22 01:50:24;;;;;;;0.30;0.30;;;2.80;99.90;;;;;;4439783;32;20152;-60
2024/04/22 01:52:49;;;;;;;0.50;0.50;;;2.70;99.90;;;;;;4441913;32;20080;-59
2024/04/22 01:55:15;;;;;;;0.30;0.30;;;2.80;99.90;;;;;;4435137;32;20069;-59
2024/04/22 01:57:41;;;;;;;0.85;0.85;;;2.80;99.90;;;;;;4430455;32;20057;-59
2024/04/22 02:02:35;;;;;;;0.30;0.30;;;2.80;99.90;;;;;;4431826;32;20077;-60
2024/04/22 02:05:01;;;;;;;0.40;0.40;;;2.80;99.90;;;;;;4432260;32;20176;-60
2024/04/22 02:07:26;;;;;;;0.40;0.40;;;2.70;99.90;;;;;;4430622;32;20748;-59
2024/04/22 02:09:52;;;;;;;0.40;0.40;;;2.70;99.90;;;;;;4430770;32;20062;-58
2024/04/22 02:12:18;;;;;;;0.30;0.30;;;2.60;99.90;;;;;;4431957;32;20107;-58
2024/04/22 02:14:43;;;;;;;0.40;0.40;;;2.60;99.90;;;;;;4425092;32;20068;-59
2024/04/22 02:17:09;;;;;;;1.20;0.93;;;2.50;99.90;;;;;;4425995;32;20128;-59
2024/04/22 02:19:34;;;;;;;0.30;0.30;;;2.60;99.90;;;;;;4425064;32;20077;-59
2024/04/22 02:22:00;;;;;;;0.40;0.40;;;2.50;99.90;;;;;;4433035;32;20074;-59
2024/04/22 02:24:25;;;;;;;0.68;0.68;;;2.50;99.90;;;;;;4428381;32;20594;-58
2024/04/22 02:26:51;;;;;;;0.30;0.30;;;2.40;99.90;;;;;;4432659;32;20089;-61
2024/04/22 02:29:16;;;;;;;0.32;0.32;;;2.50;99.90;;;;;;4429443;32;20073;-59
2024/04/22 02:31:42;;;;;;;0.40;0.40;;;2.60;99.90;;;;;;4431286;32;20080;-60
2024/04/22 02:34:08;;;;;;;0.30;0.30;;;2.70;99.90;;;;;;4430890;32;20065;-59
2024/04/22 02:36:33;;;;;;;0.30;0.30;;;2.40;99.90;;;;;;4431941;32;20069;-59
2024/04/22 02:38:59;;;;;;;0.40;0.40;;;2.40;99.90;;;;;;4428226;32;20116;-59
2024/04/22 02:41:24;;;;;;;0.30;0.30;;;2.40;99.90;;;;;;4427423;32;20167;-60
2024/04/22 02:43:50;;;;;;;0.30;0.30;;;2.40;99.90;;;;;;4426213;32;20077;-59
2024/04/22 02:46:15;;;;;;;0.30;0.30;;;2.30;99.90;;;;;;4430348;32;20070;-60
2024/04/22 02:48:41;;;;;;;0.50;0.50;;;2.20;99.90;;;;;;4434490;32;20069;-59
2024/04/22 02:51:07;;;;;;;1.37;1.27;;;2.20;99.90;;;;;;4429363;32;20093;-59
2024/04/22 02:53:32;;;;;;;1.65;0.77;;;2.20;99.90;;;;;;4431182;32;20098;-59
2024/04/22 02:55:58;;;;;;;0.52;0.52;;;2.20;99.90;;;;;;4440044;32;20550;-60
2024/04/22 02:58:23;;;;;;;0.30;0.30;;;2.20;99.90;;;;;;4427236;32;20085;-60
2024/04/22 03:00:53;;;;;;;0.47;0.47;;;2.20;99.90;;;;;;4440499;32;20122;-59
2024/04/22 03:03:20;;;;;;;0.50;0.50;;;2.20;99.90;;;;;;4437679;32;20080;-60
2024/04/22 03:05:45;;;;;;;0.30;0.30;;;2.10;99.90;;;;;;4442237;32;20065;-60
2024/04/22 03:08:11;;;;;;;0.30;0.30;;;2.00;99.90;;;;;;4440322;32;20068;-60
2024/04/22 03:10:37;;;;;;;0.30;0.30;;;2.00;99.90;;;;;;4440887;32;20116;-60
2024/04/22 03:13:08;;;;;;;0.40;0.40;;;2.00;99.90;;;;;;4439651;32;20061;-59
2024/04/22 03:15:35;;;;;;;1.55;1.15;;;2.10;99.90;;;;;;4436813;32;20554;-61
2024/04/22 03:18:01;;;;;;;0.30;0.30;;;2.10;99.90;;;;;;4427480;32;20474;-59
2024/04/22 03:20:26;;;;;;;0.40;0.40;;;2.10;99.90;;;;;;4439273;32;20068;-61
2024/04/22 03:22:52;;;;;;;0.40;0.40;;;2.10;99.90;;;;;;4440156;32;20068;-61
2024/04/22 03:25:17;;;;;;;0.40;0.40;;;2.10;99.90;;;;;;4440724;32;20078;-61
2024/04/22 03:27:43;;;;;;;0.40;0.40;;;2.00;99.90;;;;;;4439993;32;20069;-60
2024/04/22 03:30:09;;;;;;;0.30;0.30;;;2.00;99.90;;;;;;4440162;32;20108;-60
2024/04/22 03:32:34;;;;;;;0.30;0.30;;;2.00;99.90;;;;;;4440364;32;20089;-60
2024/04/22 03:35:00;;;;;;;0.68;0.68;;;1.90;99.90;;;;;;4441007;32;20402;-60
2024/04/22 03:37:26;;;;;;;0.73;0.73;;;1.80;99.90;;;;;;4443201;32;20065;-61
2024/04/22 03:39:52;;;;;;;3.25;1.58;;;1.70;99.90;;;;;;4442246;32;20086;-61
2024/04/22 03:42:17;;;;;;;0.77;0.70;;;1.70;99.90;;;;;;4443491;32;20065;-59
2024/04/22 03:44:43;;;;;;;0.52;0.52;;;1.60;99.90;;;;;;4442627;32;20077;-61
2024/04/22 03:49:56;;;;;;;0.50;0.50;;;1.70;99.90;;;;;;4431683;32;20427;-61
2024/04/22 03:52:22;;;;;;;0.30;0.30;;;1.50;99.90;;;;;;4437228;32;20124;-60
2024/04/22 03:54:48;;;;;;;1.10;0.70;;;1.60;99.90;;;;;;4441989;32;20121;-64
2024/04/22 03:57:13;;;;;;;0.30;0.30;;;1.60;99.90;;;;;;4433234;32;20076;-59
2024/04/22 03:59:40;;;;;;;0.40;0.40;;;1.60;99.90;;;;;;4440778;32;20409;-61
2024/04/22 04:02:06;;;;;;;2.75;1.30;;;1.40;99.90;;;;;;4440097;32;20123;-61
2024/04/22 04:04:32;;;;;;;0.40;0.40;;;1.40;99.90;;;;;;4441271;32;20068;-60
2024/04/22 04:06:57;;;;;;;2.08;1.02;;;1.40;99.90;;;;;;4435115;32;20722;-61
2024/04/22 04:09:23;;;;;;;0.40;0.40;;;1.40;99.90;;;;;;4443228;32;20537;-60
2024/04/22 04:11:49;;;;;;;0.73;0.73;;;1.30;99.90;;;;;;4441176;32;20077;-61
2024/04/22 04:14:14;;;;;;;0.40;0.40;;;1.30;99.90;;;;;;4443046;32;20080;-61
2024/04/22 04:16:40;;;;;;;0.30;0.30;;;1.30;99.90;;;;;;4441804;32;20077;-60
2024/04/22 04:19:06;;;;;;;0.40;0.40;;;1.30;99.90;;;;;;4443019;32;20053;-61
2024/04/22 04:21:31;;;;;;;0.32;0.32;;;1.30;99.90;;;;;;4433296;32;20077;-60
2024/04/22 04:23:57;;;;;;;0.50;0.50;;;1.40;99.90;;;;;;4437659;32;20077;-60
2024/04/22 04:26:22;;;;;;;0.40;0.40;;;1.30;99.90;;;;;;4440646;32;20068;-60
2024/04/22 04:28:48;;;;;;;0.40;0.40;;;1.30;99.90;;;;;;4442124;32;20078;-59
2024/04/22 04:31:14;;;;;;;0.30;0.30;;;1.30;99.90;;;;;;4442322;32;20085;-59
2024/04/22 04:33:39;;;;;;;0.30;0.30;;;1.50;99.90;;;;;;4439943;32;20540;-59
2024/04/22 04:36:07;;;;;;;0.40;0.40;;;1.50;99.90;;;;;;4439090;32;20081;-61
2024/04/22 04:38:33;;;;;;;0.30;0.30;;;1.60;99.90;;;;;;4417864;32;20073;-60
2024/04/22 04:40:59;;;;;;;0.50;0.50;;;1.60;99.90;;;;;;4442469;32;20084;-59
2024/04/22 04:43:26;;;;;;;1.90;1.33;;;1.70;99.90;;;;;;4433980;32;20077;-61
2024/04/22 04:45:52;;;;;;;0.30;0.30;;;1.70;99.90;;;;;;4433799;32;20485;-59
2024/04/22 04:48:19;;;;;;;0.40;0.40;;;1.80;99.90;;;;;;4427632;32;20061;-59
2024/04/22 04:50:45;;;;;;;0.40;0.40;;;2.00;99.90;;;;;;4430478;32;20092;-61
2024/04/22 04:53:11;;;;;;;0.52;0.52;;;2.00;99.90;;;;;;4423892;32;20069;-60
2024/04/22 04:55:37;;;;;;;0.35;0.35;;;2.00;99.90;;;;;;4412539;32;20518;-63
2024/04/22 04:58:03;;;;;;;0.43;0.43;;;1.90;99.90;;;;;;4423402;32;20068;-59
2024/04/22 05:00:28;;;;;;;0.37;0.37;;;2.00;99.90;;;;;;4426590;32;20394;-61
2024/04/22 05:02:54;;;;;;;0.40;0.40;;;2.00;99.90;;;;;;4427224;32;20073;-60
2024/04/22 05:05:20;;;;;;;1.75;1.15;;;2.10;99.90;;;;;;4415597;32;20077;-60
2024/04/22 05:07:48;;;;;;;0.35;0.35;;;2.20;99.90;;;;;;4401152;32;20077;-60
2024/04/22 05:10:14;;;;;;;0.57;0.57;;;2.20;99.90;;;;;;4424097;32;20518;-59
2024/04/22 05:12:39;;;;;;;0.30;0.30;;;2.20;99.90;;;;;;4426681;32;20656;-60
2024/04/22 05:15:05;;;;;;;0.45;0.45;;;2.10;99.90;;;;;;4412328;32;20078;-59
2024/04/22 05:17:31;;;;;;;0.55;0.55;;;2.20;99.90;;;;;;4424667;32;20434;-59
2024/04/22 05:19:56;;;;;;;0.35;0.35;;;2.40;99.90;;;;;;4418313;32;20076;-59
2024/04/22 05:22:22;;;;;;;0.45;0.45;;;2.50;99.90;;;;;;4403856;32;20081;-61
2024/04/22 05:24:48;;;;;;;0.30;0.30;;;2.60;99.90;;;;;;4416620;32;20144;-60
2024/04/22 05:27:13;;;;;;;0.40;0.40;;;2.70;99.90;;;;;;4398389;32;20074;-60
2024/04/22 05:29:39;;;;;;;0.60;0.60;;;2.70;99.90;;;;;;4420858;32;20056;-61
2024/04/22 05:32:04;;;;;;;0.30;0.30;;;2.80;99.90;;;;;;4427125;32;20431;-59
2024/04/22 05:36:30;;;;;;;0.30;0.30;;;2.90;99.90;;;;;;4423870;32;20074;-60
2024/04/22 05:37:16;;;;;;;0.30;0.30;;;3.10;99.90;;;;;;4426340;32;20081;-60
2024/04/22 05:39:42;;;;;;;0.40;0.40;;;3.20;99.90;;;;;;4421298;32;20538;-60
2024/04/22 05:42:08;;;;;;;0.37;0.37;;;3.20;99.90;;;;;;4419400;32;20078;-61
2024/04/22 05:44:34;;;;;;;0.40;0.40;;;3.30;99.90;;;;;;4409006;32;20074;-61
2024/04/22 05:47:00;;;;;;;0.50;0.50;;;3.40;99.90;;;;;;4405592;32;20430;-61
2024/04/22 05:49:26;;;;;;;0.37;0.37;;;3.40;99.90;;;;;;4404882;32;20072;-60
2024/04/22 05:51:52;;;;;;;0.40;0.40;;;3.60;99.90;;;;;;4407168;32;20352;-60
2024/04/22 05:54:18;;;;;;;0.52;0.52;;;3.60;99.90;;;;;;4400124;32;20691;-61
2024/04/22 05:56:44;;;;;;;0.80;0.77;;;3.70;99.90;;;;;;4389009;32;20344;-60
2024/04/22 05:59:11;;;;;;;1.05;0.82;;;3.80;99.90;;;;;;4384864;32;20078;-60
2024/04/22 06:01:37;;;;;;;0.60;0.60;;;3.90;99.90;;;;;;4378148;32;20093;-62
2024/04/22 06:04:04;;;;;;;0.30;0.30;;;4.00;99.90;;;;;;4385314;32;20118;-62
2024/04/22 06:06:30;;;;;;;0.30;0.30;;;4.00;99.90;;;;;;4386875;32;20833;-61
2024/04/22 06:08:56;;;;;;;0.30;0.30;;;4.20;99.90;;;;;;4395291;32;20175;-61
2024/04/22 06:11:21;;;;;;;0.37;0.37;;;4.20;99.90;;;;;;4385751;32;20097;-60
2024/04/22 06:13:47;;;;;;;0.30;0.30;;;4.20;99.90;;;;;;4391654;32;20086;-61
2024/04/22 06:16:13;;;;;;;0.52;0.45;;;4.30;99.90;;;;;;4391711;32;20545;-62
2024/04/22 06:18:38;;;;;;;0.35;0.35;;;4.30;99.90;;;;;;4385522;32;21429;-61
2024/04/22 06:21:04;;;;;;;0.55;0.55;;;4.40;99.90;;;;;;4389924;32;21280;-61
2024/04/22 06:23:29;;;;;;;0.43;0.43;;;4.50;99.90;;;;;;4388039;32;20652;-61
2024/04/22 06:26:10;;;;;;;0.37;0.37;;;4.60;99.90;;;;;;4393959;32;20077;-61
2024/04/22 06:28:36;;;;;;;0.30;0.30;;;4.60;99.90;;;;;;4385032;32;20303;-61
2024/04/22 06:31:02;;;;;;;0.30;0.30;;;4.70;99.90;;;;;;4382644;32;20240;-61
2024/04/22 06:33:29;;;;;;;1.48;0.40;;;4.70;99.90;;;;;;4392920;32;20077;-61
2024/04/22 06:35:55;;;;;;;0.40;0.40;;;4.70;99.90;;;;;;4377520;32;20077;-61
2024/04/22 06:38:21;;;;;;;0.40;0.40;;;4.80;99.90;;;;;;4383887;32;20081;-62
2024/04/22 06:40:47;;;;;;;0.30;0.30;;;4.90;99.90;;;;;;4392484;32;20812;-61
2024/04/22 06:43:13;;;;;;;0.30;0.30;;;4.90;99.90;;;;;;4378490;32;20446;-61
2024/04/22 06:45:39;;;;;;;0.32;0.32;;;5.00;99.90;;;;;;4386617;32;20085;-60
2024/04/22 06:48:05;;;;;;;0.30;0.30;;;5.10;99.90;;;;;;4384876;32;20097;-61
2024/04/22 06:50:31;;;;;;;0.35;0.35;;;5.10;99.90;;;;;;4390800;32;20094;-61
2024/04/22 06:52:57;;;;;;;0.62;0.45;;;5.20;99.90;;;;;;4380449;32;20165;-62
2024/04/22 06:55:23;;;;;;;0.30;0.30;;;5.20;99.90;;;;;;4387443;32;20580;-60
2024/04/22 06:57:49;;;;;;;0.80;0.80;;;5.30;99.90;;;;;;4369941;32;20868;-61
2024/04/22 07:00:15;;;;;;;0.40;0.40;;;5.30;99.90;;;;;;4382389;32;20098;-60
2024/04/22 07:02:42;;;;;;;0.30;0.30;;;5.50;99.90;;;;;;4373779;32;20107;-61
2024/04/22 07:05:07;;;;;;;0.32;0.32;;;5.50;99.90;;;;;;4385435;32;20073;-62
2024/04/22 07:07:33;;;;;;;0.22;0.22;;;5.60;99.90;;;;;;4392432;32;20073;-62
2024/04/22 07:09:59;;;;;;;0.30;0.30;;;5.50;99.90;;;;;;4388722;32;20141;-61
2024/04/22 07:12:24;;;;;;;0.30;0.30;;;5.40;99.90;;;;;;4396622;32;20093;-60
2024/04/22 07:14:50;;;;;;;0.30;0.30;;;5.30;99.90;;;;;;4398541;32;20066;-62
2024/04/22 07:17:16;;;;;;;0.52;0.52;;;5.20;99.90;;;;;;4391550;32;20081;-60
2024/04/22 07:19:41;;;;;;;0.47;0.40;;;5.20;99.90;;;;;;4391052;32;20097;-60
2024/04/22 07:22:07;;;;;;;0.60;0.60;;;5.50;99.90;;;;;;4386600;32;20879;-61
2024/04/22 07:24:33;;;;;;;0.20;0.20;;;5.60;99.90;;;;;;4393956;32;20137;-62
2024/04/22 07:26:59;;;;;;;0.40;0.40;;;5.60;99.90;;;;;;4386304;32;20497;-61
2024/04/22 07:29:25;;;;;;;6.22;1.02;;;5.70;99.90;;;;;;4381895;32;20175;-61
2024/04/22 07:31:51;;;;;;;0.40;0.40;;;5.80;99.90;;;;;;4391727;32;20776;-62
2024/04/22 07:34:17;;;;;;;0.50;0.50;;;5.90;99.90;;;;;;4391228;32;20478;-62
2024/04/22 07:36:47;;;;;;;0.30;0.30;;;5.90;99.90;;;;;;4396726;32;20158;-62
2024/04/22 07:39:17;;;;;;;0.30;0.30;;;6.00;99.90;;;;;;4390117;32;21897;-63
2024/04/22 07:41:43;;;;;;;0.25;0.25;;;6.00;99.90;;;;;;4401381;32;20486;-61
2024/04/22 07:44:09;;;;;;;0.40;0.40;;;6.10;99.90;;;;;;4387653;32;20090;-61
2024/04/22 07:46:35;;;;;;;0.30;0.30;;;6.20;99.90;;;;;;4399102;32;20561;-64
2024/04/22 07:49:00;;;;;;;0.22;0.22;;;6.10;99.90;;;;;;4391611;32;20825;-63
2024/04/22 07:51:26;;;;;;;0.30;0.30;;;6.20;99.90;;;;;;4397782;32;20085;-62
2024/04/22 07:53:53;;;;;;;0.40;0.40;;;6.30;99.90;;;;;;4403866;32;21001;-64
2024/04/22 07:56:21;;;;;;;1.52;1.30;;;6.40;99.90;;;;;;4409425;32;20143;-63
2024/04/22 07:58:47;;;;;;;0.32;0.32;;;6.40;99.90;;;;;;4388616;32;20081;-61
2024/04/22 08:01:13;;;;;;;0.30;0.30;;;6.40;99.90;;;;;;4411226;32;20702;-63
2024/04/22 08:03:40;;;;;;;0.30;0.30;;;6.40;99.90;;;;;;4415284;32;20084;-63
2024/04/22 08:06:12;;;;;;;0.40;0.40;;;6.40;99.90;;;;;;4397568;32;20086;-64
2024/04/22 08:08:39;;;;;;;10.45;0.50;;;6.40;99.90;;;;;;4402458;32;20092;-62
2024/04/22 08:11:05;;;;;;;0.40;0.40;;;6.40;99.90;;;;;;4399511;32;20096;-63
2024/04/22 08:13:30;;;;;;;0.37;0.37;;;6.40;99.90;;;;;;4416437;32;20077;-63
2024/04/22 08:15:56;;;;;;;0.25;0.25;;;6.50;99.90;;;;;;4418337;32;20081;-64
2024/04/22 08:18:21;;;;;;;0.88;0.88;;;6.50;99.90;;;;;;4421196;32;20084;-63
2024/04/22 08:20:47;;;;;;;0.32;0.32;;;6.50;99.90;;;;;;4411970;32;20089;-64
2024/04/22 08:23:13;;;;;;;0.40;0.40;;;6.40;99.90;;;;;;4412103;32;20898;-63
2024/04/22 08:25:38;;;;;;;0.30;0.30;;;6.60;99.90;;;;;;4417437;32;20084;-60
2024/04/22 08:28:04;;;;;;;0.40;0.40;;;6.30;99.90;;;;;;4411167;32;20104;-63
2024/04/22 08:30:30;;;;;;;0.40;0.40;;;6.30;99.90;;;;;;4414616;32;20102;-63
2024/04/22 08:32:55;;;;;;;0.30;0.30;;;6.30;99.90;;;;;;4421201;32;20727;-63
2024/04/22 08:35:21;;;;;;;0.37;0.37;;;6.30;99.90;;;;;;4418940;32;20137;-62
2024/04/22 08:37:47;;;;;;;0.30;0.30;;;6.30;99.90;;;;;;4420627;32;20097;-63
2024/04/22 08:40:13;;;;;;;0.45;0.45;;;6.30;99.90;;;;;;4401329;32;20073;-62
2024/04/22 08:42:39;;;;;;;0.40;0.40;;;6.30;99.90;;;;;;4405788;32;20081;-64
2024/04/22 08:45:06;;;;;;;0.40;0.40;;;6.50;99.90;;;;;;4403839;32;20097;-62
2024/04/22 08:47:32;;;;;;;0.70;0.60;;;6.50;99.90;;;;;;4421794;32;20143;-64
2024/04/22 08:49:59;;;;;;;0.50;0.50;;;6.60;99.90;;;;;;4423977;32;20264;-63
2024/04/22 08:52:25;;;;;;;0.70;0.70;;;6.60;99.90;;;;;;4420979;32;20081;-62
2024/04/22 08:54:51;;;;;;;0.30;0.30;;;6.70;99.90;;;;;;4410775;32;20105;-62
2024/04/22 08:57:17;;;;;;;0.55;0.55;;;6.70;99.90;;;;;;4398431;32;20094;-63
2024/04/22 08:59:44;;;;;;;0.30;0.30;;;6.60;99.90;;;;;;4417821;32;20219;-62
2024/04/22 09:02:12;;;;;;;0.30;0.30;;;6.50;99.90;;;;;;4409080;32;20965;-63
2024/04/22 09:04:38;;;;;;;0.32;0.32;;;6.50;99.90;;;;;;4420353;32;20131;-63
2024/04/22 09:07:06;;;;;;;0.40;0.40;;;6.50;99.90;;;;;;4419329;32;20468;-63
2024/04/22 09:09:32;;;;;;;2.22;0.47;;;6.50;99.90;;;;;;4423100;32;20458;-63
2024/04/22 09:11:58;;;;;;;0.30;0.30;;;6.30;99.90;;;;;;4426119;32;20082;-65
2024/04/22 09:14:25;;;;;;;0.30;0.30;;;5.90;99.90;;;;;;4421134;32;20590;-64
2024/04/22 09:16:51;;;;;;;0.30;0.30;;;5.80;99.90;;;;;;4428570;32;20089;-63
2024/04/22 09:19:25;;;;;;;0.43;0.43;;;5.60;99.90;;;;;;4421037;32;20597;-63
2024/04/22 09:21:51;;;;;;;0.40;0.40;;;5.50;99.90;;;;;;4413289;32;20065;-63
2024/04/22 09:24:17;;;;;;;0.30;0.30;;;5.50;99.90;;;;;;4398816;32;21317;-63
2024/04/22 09:26:43;;;;;;;0.50;0.50;;;5.60;99.90;;;;;;4410974;32;20382;-63
2024/04/22 09:29:11;;;;;;;0.47;0.47;;;5.70;99.90;;;;;;4404806;32;20265;-64
2024/04/22 09:31:39;;;;;;;0.50;0.50;;;5.90;99.90;;;;;;4401533;32;20144;-65
2024/04/22 09:34:05;;;;;;;0.30;0.30;;;6.00;99.90;;;;;;4404054;32;20592;-63
2024/04/22 09:36:31;;;;;;;0.30;0.30;;;6.20;99.90;;;;;;4422611;32;20168;-63
2024/04/22 09:38:57;;;;;;;0.40;0.40;;;6.50;99.90;;;;;;4417861;32;20101;-63
2024/04/22 09:41:25;;;;;;;0.40;0.40;;;6.70;99.90;;;;;;4418306;32;20560;-63
2024/04/22 09:43:53;;;;;;;0.30;0.30;;;6.70;99.90;;;;;;4408278;32;20077;-65
2024/04/22 09:46:19;;;;;;;0.30;0.30;;;6.80;99.90;;;;;;4374905;32;20179;-64
2024/04/22 09:48:46;;;;;;;0.32;0.32;;;6.80;99.90;;;;;;4389931;32;20106;-63
2024/04/22 09:51:12;;;;;;;0.25;0.25;;;6.70;99.90;;;;;;4413700;32;20082;-62
2024/04/22 09:53:40;;;;;;;0.30;0.30;;;6.60;99.90;;;;;;4397466;32;20093;-64
2024/04/22 09:56:10;;;;;;;0.40;0.40;;;6.30;99.90;;;;;;4402531;32;20596;-64
2024/04/22 09:58:38;;;;;;;0.30;0.30;;;6.30;99.90;;;;;;4387166;32;20140;-63
2024/04/22 10:01:04;;;;;;;0.22;0.22;;;6.20;99.90;;;;;;4415755;32;20127;-63
2024/04/22 10:03:30;;;;;;;1.02;0.82;;;6.30;99.90;;;;;;4410932;32;20231;-64
2024/04/22 10:05:58;;;;;;;0.30;0.30;;;6.20;99.90;;;;;;4407271;32;20088;-64
2024/04/22 10:08:25;;;;;;;0.70;0.65;;;6.20;99.90;;;;;;4400279;32;20104;-63
2024/04/22 10:10:51;;;;;;;0.30;0.30;;;6.40;99.90;;;;;;4414777;32;20143;-61
2024/04/22 10:13:24;;;;;;;30.12;0.82;;;6.70;99.90;;;;;;4409255;32;20085;-64
2024/04/22 10:15:49;;;;;;;0.30;0.30;;;7.00;99.90;;;;;;4399460;32;20609;-62
2024/04/22 10:18:18;;;;;;;0.30;0.30;;;7.20;99.90;;;;;;4410747;32;20146;-63
2024/04/22 10:20:44;;;;;;;0.57;0.57;;;7.50;99.90;;;;;;4399252;32;20512;-62
2024/04/22 10:23:13;;;;;;;0.32;0.32;;;7.70;99.90;;;;;;4392387;32;20455;-63
2024/04/22 10:25:39;;;;;;;0.40;0.40;;;7.50;99.90;;;;;;4421406;32;20541;-64
2024/04/22 10:28:04;;;;;;;2.33;0.77;;;7.30;99.90;;;;;;4402474;32;20092;-62
2024/04/22 10:30:33;;;;;;;0.30;0.30;;;7.10;99.90;;;;;;4413996;32;20057;-62
2024/04/22 10:32:59;;;;;;;0.40;0.40;;;7.00;99.90;;;;;;4405441;32;20077;-63
2024/04/22 10:35:25;;;;;;;0.30;0.30;;;6.90;99.90;;;;;;4415721;32;20598;-64
2024/04/22 10:37:50;;;;;;;0.32;0.32;;;6.60;99.90;;;;;;4419065;32;20446;-63
2024/04/22 10:40:16;;;;;;;0.73;0.43;;;6.70;99.90;;;;;;4404451;32;20061;-62
2024/04/22 10:42:42;;;;;;;0.35;0.35;;;6.70;99.90;;;;;;4422747;32;20605;-62
2024/04/22 10:45:08;;;;;;;0.40;0.40;;;6.50;99.90;;;;;;4403594;32;20800;-63
2024/04/22 10:47:34;;;;;;;0.40;0.40;;;6.40;99.90;;;;;;4411224;32;20255;-64
2024/04/22 10:50:00;;;;;;;0.30;0.30;;;6.40;99.90;;;;;;4414249;32;20923;-63
2024/04/22 10:52:26;;;;;;;0.30;0.30;;;6.40;99.90;;;;;;4409497;32;20152;-61
2024/04/22 10:54:52;;;;;;;2.72;0.80;;;6.20;99.90;;;;;;4403462;32;20093;-64
2024/04/22 10:57:19;;;;;;;0.40;0.40;;;6.10;99.90;;;;;;4397139;32;20580;-63
2024/04/22 10:59:44;;;;;;;0.40;0.40;;;6.10;99.90;;;;;;4381603;32;20077;-64
2024/04/22 11:02:11;;;;;;;0.40;0.40;;;6.10;99.90;;;;;;4394811;32;21047;-63
2024/04/22 11:04:38;;;;;;;0.30;0.30;;;6.20;99.90;;;;;;4408140;32;20061;-64
2024/04/22 11:07:04;;;;;;;0.30;0.30;;;6.40;99.90;;;;;;4392183;32;20797;-64
2024/04/22 11:09:33;;;;;;;0.40;0.40;;;6.80;99.90;;;;;;4404084;32;20085;-64
2024/04/22 11:12:00;;;;;;;0.60;0.60;;;7.10;99.90;;;;;;4414917;32;20101;-62
2024/04/22 11:14:28;;;;;;;0.40;0.40;;;7.40;99.90;;;;;;4409046;32;20121;-64
2024/04/22 11:16:55;;;;;;;0.30;0.30;;;7.60;99.90;;;;;;4398827;32;20158;-62
2024/04/22 11:19:21;;;;;;;9.48;2.03;;;7.50;99.90;;;;;;4404937;32;20793;-64
2024/04/22 11:21:47;;;;;;;0.35;0.35;;;7.40;99.90;;;;;;4412659;32;20073;-65
2024/04/22 11:24:13;;;;;;;0.37;0.37;;;6.90;99.90;;;;;;4415689;32;20073;-63
2024/04/22 11:26:39;;;;;;;0.40;0.40;;;6.70;99.90;;;;;;4409673;32;20335;-63
2024/04/22 11:29:05;;;;;;;1.87;0.95;;;6.70;99.90;;;;;;4411805;32;20576;-63
2024/04/22 11:31:36;;;;;;;0.30;0.30;;;6.80;99.90;;;;;;4403189;32;20272;-62
2024/04/22 11:34:01;;;;;;;0.40;0.40;;;7.20;99.90;;;;;;4392309;32;20102;-64
2024/04/22 11:36:33;;;;;;;0.40;0.40;;;7.30;99.90;;;;;;4407227;32;20089;-64
2024/04/22 11:39:14;;;;;;;0.37;0.37;;;7.10;99.90;;;;;;4409687;32;20077;-63
2024/04/22 11:41:40;;;;;;;0.30;0.30;;;7.20;99.90;;;;;;4409187;32;20440;-63
2024/04/22 11:44:07;;;;;;;0.30;0.30;;;7.30;99.90;;;;;;4404847;32;21273;-62
2024/04/22 11:46:32;;;;;;;0.50;0.50;;;7.30;99.90;;;;;;4398603;32;20607;-63
2024/04/22 11:48:59;;;;;;;0.30;0.30;;;7.30;99.90;;;;;;4396695;32;20081;-63
2024/04/22 11:51:25;;;;;;;0.40;0.40;;;7.10;99.90;;;;;;4397170;32;20085;-64
2024/04/22 11:53:51;;;;;;;0.40;0.40;;;7.10;99.90;;;;;;4411541;32;83280;-62
2024/04/22 11:56:17;;;;;;;0.70;0.50;;;6.90;99.90;;;;;;4399745;32;20775;-62
2024/04/22 11:58:43;;;;;;;0.40;0.40;;;6.90;99.90;;;;;;4414947;32;20065;-63
2024/04/22 12:01:08;;;;;;;0.35;0.35;;;7.00;99.90;;;;;;4414614;32;20817;-63
2024/04/22 12:03:35;;;;;;;0.40;0.40;;;7.00;99.90;;;;;;4424093;32;20086;-63
2024/04/22 12:06:00;;;;;;;0.40;0.40;;;7.10;99.90;;;;;;4418206;32;20584;-62
2024/04/22 12:08:26;;;;;;;0.30;0.30;;;7.20;99.90;;;;;;4418084;32;20179;-63
2024/04/22 12:10:51;;;;;;;0.30;0.30;;;7.10;99.90;;;;;;4421465;32;20089;-63
2024/04/22 12:13:17;;;;;;;0.70;0.68;;;6.90;99.90;;;;;;4414775;32;20085;-64
2024/04/22 12:15:43;;;;;;;0.32;0.32;;;7.10;99.90;;;;;;4412679;32;20143;-64
2024/04/22 12:18:08;;;;;;;0.60;0.60;;;7.10;99.90;;;;;;4415478;32;20097;-63
2024/04/22 12:20:34;;;;;;;0.52;0.52;;;7.20;99.90;;;;;;4418715;32;20093;-63
2024/04/22 12:23:00;;;;;;;0.25;0.25;;;7.40;99.90;;;;;;4399004;32;20144;-63
2024/04/22 12:25:26;;;;;;;0.47;0.47;;;7.60;99.90;;;;;;4406610;32;20109;-64
2024/04/22 12:27:51;;;;;;;0.30;0.30;;;7.50;99.90;;;;;;4420674;32;20540;-62
2024/04/22 12:30:17;;;;;;;1.17;1.02;;;7.70;99.90;;;;;;4418906;32;20273;-63
2024/04/22 12:32:42;;;;;;;0.30;0.30;;;7.70;99.90;;;;;;4422276;32;20136;-64
2024/04/22 12:35:08;;;;;;;0.30;0.30;;;7.60;99.90;;;;;;4425245;32;20088;-63
2024/04/22 12:37:35;;;;;;;0.30;0.30;;;7.60;99.90;;;;;;4423993;32;20127;-62
2024/04/22 12:40:00;;;;;;;0.30;0.30;;;7.70;99.90;;;;;;4428404;32;20194;-62
2024/04/22 12:42:26;;;;;;;0.30;0.30;;;7.80;99.90;;;;;;4422535;32;20545;-62
2024/04/22 12:44:52;;;;;;;0.40;0.40;;;7.80;99.90;;;;;;4424796;32;20613;-62
2024/04/22 12:51:03;;;;;;;1.17;1.08;;;7.80;99.90;;;;;;4420017;32;20165;-63
2024/04/22 12:52:49;;;;;;;0.40;0.40;;;7.80;99.90;;;;;;4422742;32;20584;-63
2024/04/22 12:55:14;;;;;;;0.98;0.50;;;7.90;99.90;;;;;;4429200;32;20061;-62
2024/04/22 12:57:40;;;;;;;0.20;0.20;;;7.90;99.90;;;;;;4429791;32;20119;-63
2024/04/22 13:00:08;;;;;;;1.00;0.70;;;7.90;99.90;;;;;;4425710;32;20077;-62